sensor_id;sensor_type;location;lat;lon;timestamp;pressure;altitude;pressure_sealevel;temperature;humidity
72587;BME280;60621;49.576;11.024;2023-05-23T00:00:28;97967.16;;;19.37;60.34
72587;BME280;60621;49.576;11.024;2023-05-23T00:01:30;97963.63;;;19.40;60.02
72587;BME280;60621;49.576;11.024;2023-05-23T00:02:32;97959.22;;;19.34;60.48
72587;BME280;60621;49.576;11.024;2023-05-23T00:03:35;97965.66;;;19.36;60.21
72587;BME280;60621;49.576;11.024;2023-05-23T00:04:40;97963.31;;;19.38;60.35
72587;BME280;60621;49.576;11.024;2023-05-23T00:05:49;97965.13;;;19.41;60.02
72587;BME280;60621;49.576;11.024;2023-05-23T00:06:52;97960.97;;;19.40;60.15
72587;BME280;60621;49.576;11.024;2023-05-23T00:07:54;97967.31;;;19.47;60.07
72587;BME280;60621;49.576;11.024;2023-05-23T00:08:56;97962.28;;;19.49;59.76
72587;BME280;60621;49.576;11.024;2023-05-23T00:09:57;97963.88;;;19.46;59.97
72587;BME280;60621;49.576;11.024;2023-05-23T00:10:59;97972.69;;;19.47;60.09
72587;BME280;60621;49.576;11.024;2023-05-23T00:12:01;97962.06;;;19.43;60.09
72587;BME280;60621;49.576;11.024;2023-05-23T00:13:03;97974.91;;;19.48;59.93
72587;BME280;60621;49.576;11.024;2023-05-23T00:14:05;97980.59;;;19.50;60.13
72587;BME280;60621;49.576;11.024;2023-05-23T00:15:08;97967.31;;;19.47;60.12
72587;BME280;60621;49.576;11.024;2023-05-23T00:16:10;97964.91;;;19.36;60.51
72587;BME280;60621;49.576;11.024;2023-05-23T00:17:11;97973.13;;;19.29;60.89
72587;BME280;60621;49.576;11.024;2023-05-23T00:18:13;97967.84;;;19.25;60.98
72587;BME280;60621;49.576;11.024;2023-05-23T00:19:15;97970.25;;;19.36;60.97
72587;BME280;60621;49.576;11.024;2023-05-23T00:20:17;97965.31;;;19.34;61.06
72587;BME280;60621;49.576;11.024;2023-05-23T00:21:19;97969.00;;;19.40;61.06
72587;BME280;60621;49.576;11.024;2023-05-23T00:22:20;97971.34;;;19.38;60.85
72587;BME280;60621;49.576;11.024;2023-05-23T00:23:22;97972.41;;;19.41;61.02
72587;BME280;60621;49.576;11.024;2023-05-23T00:24:29;97973.03;;;19.32;61.50
72587;BME280;60621;49.576;11.024;2023-05-23T00:25:31;97977.13;;;19.21;61.20
72587;BME280;60621;49.576;11.024;2023-05-23T00:26:34;97976.63;;;19.26;62.10
72587;BME280;60621;49.576;11.024;2023-05-23T00:27:36;97979.97;;;19.30;61.93
72587;BME280;60621;49.576;11.024;2023-05-23T00:28:39;97983.38;;;19.30;61.70
72587;BME280;60621;49.576;11.024;2023-05-23T00:29:45;97981.22;;;19.25;61.81
72587;BME280;60621;49.576;11.024;2023-05-23T00:30:47;97979.31;;;19.09;61.87
72587;BME280;60621;49.576;11.024;2023-05-23T00:31:52;97986.41;;;19.00;61.78
72587;BME280;60621;49.576;11.024;2023-05-23T00:32:53;97985.06;;;18.91;62.03
72587;BME280;60621;49.576;11.024;2023-05-23T00:33:55;97985.38;;;18.77;62.23
72587;BME280;60621;49.576;11.024;2023-05-23T00:34:58;97986.44;;;18.63;62.81
72587;BME280;60621;49.576;11.024;2023-05-23T00:36:03;97985.00;;;18.59;62.84
72587;BME280;60621;49.576;11.024;2023-05-23T00:37:04;97991.09;;;18.59;62.76
72587;BME280;60621;49.576;11.024;2023-05-23T00:38:06;97990.00;;;18.57;62.88
72587;BME280;60621;49.576;11.024;2023-05-23T00:39:08;97994.19;;;18.58;63.12
72587;BME280;60621;49.576;11.024;2023-05-23T00:40:10;97987.00;;;18.55;62.90
72587;BME280;60621;49.576;11.024;2023-05-23T00:41:12;97992.06;;;18.49;63.35
72587;BME280;60621;49.576;11.024;2023-05-23T00:42:13;97991.81;;;18.43;63.65
72587;BME280;60621;49.576;11.024;2023-05-23T00:43:15;97986.28;;;18.34;63.80
72587;BME280;60621;49.576;11.024;2023-05-23T00:44:16;97987.94;;;18.28;63.93
72587;BME280;60621;49.576;11.024;2023-05-23T00:45:20;97992.94;;;18.26;64.09
72587;BME280;60621;49.576;11.024;2023-05-23T00:46:22;97988.81;;;18.22;64.11
72587;BME280;60621;49.576;11.024;2023-05-23T00:47:24;97988.97;;;18.14;64.38
72587;BME280;60621;49.576;11.024;2023-05-23T00:48:26;97988.22;;;18.14;64.52
72587;BME280;60621;49.576;11.024;2023-05-23T00:49:28;97993.28;;;18.28;64.38
72587;BME280;60621;49.576;11.024;2023-05-23T00:50:30;97995.19;;;18.28;64.53
72587;BME280;60621;49.576;11.024;2023-05-23T00:51:33;97998.81;;;18.37;64.31
72587;BME280;60621;49.576;11.024;2023-05-23T00:52:37;97996.41;;;18.43;64.18
72587;BME280;60621;49.576;11.024;2023-05-23T00:53:40;97998.41;;;18.39;64.38
72587;BME280;60621;49.576;11.024;2023-05-23T00:54:42;97996.16;;;18.37;64.15
72587;BME280;60621;49.576;11.024;2023-05-23T00:55:44;98005.09;;;18.47;63.93
72587;BME280;60621;49.576;11.024;2023-05-23T00:56:49;98001.84;;;18.56;63.69
72587;BME280;60621;49.576;11.024;2023-05-23T00:57:54;98007.06;;;18.63;63.41
72587;BME280;60621;49.576;11.024;2023-05-23T00:58:58;98001.19;;;18.52;63.63
72587;BME280;60621;49.576;11.024;2023-05-23T01:00:01;98006.06;;;18.37;64.44
72587;BME280;60621;49.576;11.024;2023-05-23T01:01:03;98000.91;;;18.46;64.34
72587;BME280;60621;49.576;11.024;2023-05-23T01:02:07;97996.41;;;18.43;64.18
72587;BME280;60621;49.576;11.024;2023-05-23T01:03:09;97996.34;;;18.27;64.70
72587;BME280;60621;49.576;11.024;2023-05-23T01:04:18;97989.50;;;18.26;64.87
72587;BME280;60621;49.576;11.024;2023-05-23T01:05:27;97989.31;;;18.16;65.14
72587;BME280;60621;49.576;11.024;2023-05-23T01:06:35;97987.06;;;18.15;65.08
72587;BME280;60621;49.576;11.024;2023-05-23T01:07:40;97989.03;;;18.31;65.06
72587;BME280;60621;49.576;11.024;2023-05-23T01:08:41;97987.91;;;18.48;64.76
72587;BME280;60621;49.576;11.024;2023-05-23T01:09:44;97993.28;;;18.64;64.25
72587;BME280;60621;49.576;11.024;2023-05-23T01:10:45;97991.56;;;18.74;64.04
72587;BME280;60621;49.576;11.024;2023-05-23T01:12:24;98001.16;;;18.72;64.41
72587;BME280;60621;49.576;11.024;2023-05-23T01:13:33;97992.94;;;18.62;64.44
72587;BME280;60621;49.576;11.024;2023-05-23T01:14:47;98000.03;;;18.53;64.74
72587;BME280;60621;49.576;11.024;2023-05-23T01:16:04;97992.19;;;18.62;64.60
72587;BME280;60621;49.576;11.024;2023-05-23T01:17:16;97990.34;;;18.59;65.07
72587;BME280;60621;49.576;11.024;2023-05-23T01:18:41;97996.78;;;18.61;65.14
72587;BME280;60621;49.576;11.024;2023-05-23T01:20:18;97996.66;;;18.49;65.91
72587;BME280;60621;49.576;11.024;2023-05-23T01:21:17;97996.28;;;18.66;65.41
72587;BME280;60621;49.576;11.024;2023-05-23T01:22:48;97994.66;;;18.73;65.04
72587;BME280;60621;49.576;11.024;2023-05-23T01:25:54;97997.44;;;18.65;65.33
72587;BME280;60621;49.576;11.024;2023-05-23T01:28:39;97991.41;;;18.45;65.83
72587;BME280;60621;49.576;11.024;2023-05-23T01:29:45;97993.53;;;18.34;66.61
72587;BME280;60621;49.576;11.024;2023-05-23T01:30:51;97994.22;;;18.38;66.56
72587;BME280;60621;49.576;11.024;2023-05-23T01:31:56;97988.59;;;18.52;66.18
72587;BME280;60621;49.576;11.024;2023-05-23T01:33:00;97987.16;;;18.48;66.34
72587;BME280;60621;49.576;11.024;2023-05-23T01:34:03;97985.13;;;18.35;66.42
72587;BME280;60621;49.576;11.024;2023-05-23T01:35:05;97986.03;;;18.29;66.55
72587;BME280;60621;49.576;11.024;2023-05-23T01:36:07;97983.00;;;18.27;66.74
72587;BME280;60621;49.576;11.024;2023-05-23T01:37:10;97982.66;;;18.25;66.68
72587;BME280;60621;49.576;11.024;2023-05-23T01:38:12;97992.38;;;18.35;66.45
72587;BME280;60621;49.576;11.024;2023-05-23T01:39:13;97984.91;;;18.26;66.62
72587;BME280;60621;49.576;11.024;2023-05-23T01:40:15;97988.28;;;18.30;66.48
72587;BME280;60621;49.576;11.024;2023-05-23T01:41:17;97990.31;;;18.42;66.22
72587;BME280;60621;49.576;11.024;2023-05-23T01:42:18;97989.28;;;18.36;65.80
72587;BME280;60621;49.576;11.024;2023-05-23T01:43:20;97993.31;;;18.45;65.88
72587;BME280;60621;49.576;11.024;2023-05-23T01:44:22;97987.78;;;18.35;66.28
72587;BME280;60621;49.576;11.024;2023-05-23T01:45:25;97990.31;;;18.42;65.98
72587;BME280;60621;49.576;11.024;2023-05-23T01:46:28;97991.25;;;18.32;66.39
72587;BME280;60621;49.576;11.024;2023-05-23T01:47:31;97987.84;;;18.32;66.39
72587;BME280;60621;49.576;11.024;2023-05-23T01:48:34;97997.28;;;18.36;65.92
72587;BME280;60621;49.576;11.024;2023-05-23T01:49:37;97995.03;;;18.35;66.03
72587;BME280;60621;49.576;11.024;2023-05-23T01:50:41;97991.88;;;18.40;65.84
72587;BME280;60621;49.576;11.024;2023-05-23T01:51:46;97992.78;;;18.33;66.23
72587;BME280;60621;49.576;11.024;2023-05-23T01:52:48;97994.34;;;18.31;66.29
72587;BME280;60621;49.576;11.024;2023-05-23T01:53:50;97997.28;;;18.36;66.25
72587;BME280;60621;49.576;11.024;2023-05-23T01:54:51;97995.59;;;18.26;66.56
72587;BME280;60621;49.576;11.024;2023-05-23T01:55:54;97999.66;;;18.14;66.72
72587;BME280;60621;49.576;11.024;2023-05-23T01:56:56;97988.09;;;18.01;67.06
72587;BME280;60621;49.576;11.024;2023-05-23T01:57:58;97996.38;;;17.87;67.81
72587;BME280;60621;49.576;11.024;2023-05-23T01:59:01;97992.47;;;17.91;67.60
72587;BME280;60621;49.576;11.024;2023-05-23T02:00:04;97997.91;;;17.84;67.97
72587;BME280;60621;49.576;11.024;2023-05-23T02:01:08;97988.34;;;17.87;67.80
72587;BME280;60621;49.576;11.024;2023-05-23T02:02:10;97986.09;;;18.05;67.39
72587;BME280;60621;49.576;11.024;2023-05-23T02:03:11;97991.09;;;18.03;67.61
72587;BME280;60621;49.576;11.024;2023-05-23T02:04:13;97986.97;;;17.99;67.59
72587;BME280;60621;49.576;11.024;2023-05-23T02:05:16;97990.88;;;17.94;67.63
72587;BME280;60621;49.576;11.024;2023-05-23T02:06:17;97998.63;;;17.88;67.93
72587;BME280;60621;49.576;11.024;2023-05-23T02:07:19;97994.66;;;17.97;67.84
72587;BME280;60621;49.576;11.024;2023-05-23T02:08:23;97993.63;;;18.10;67.41
72587;BME280;60621;49.576;11.024;2023-05-23T02:09:25;97996.00;;;18.25;66.99
72587;BME280;60621;49.576;11.024;2023-05-23T02:10:26;97986.16;;;18.22;66.80
72587;BME280;60621;49.576;11.024;2023-05-23T02:11:28;97985.19;;;18.12;66.98
72587;BME280;60621;49.576;11.024;2023-05-23T02:12:29;97991.50;;;18.22;66.97
72587;BME280;60621;49.576;11.024;2023-05-23T02:13:31;97989.50;;;18.26;66.73
72587;BME280;60621;49.576;11.024;2023-05-23T02:14:33;97983.53;;;18.18;67.08
72587;BME280;60621;49.576;11.024;2023-05-23T02:15:34;97989.66;;;18.19;67.08
72587;BME280;60621;49.576;11.024;2023-05-23T02:16:36;97987.59;;;18.26;67.05
72587;BME280;60621;49.576;11.024;2023-05-23T02:17:38;97985.94;;;18.32;67.01
72587;BME280;60621;49.576;11.024;2023-05-23T02:18:41;97988.59;;;18.32;66.93
72587;BME280;60621;49.576;11.024;2023-05-23T02:19:43;97991.88;;;18.40;66.52
72587;BME280;60621;49.576;11.024;2023-05-23T02:20:44;97989.56;;;18.42;66.89
72587;BME280;60621;49.576;11.024;2023-05-23T02:21:46;97990.81;;;18.37;66.80
72587;BME280;60621;49.576;11.024;2023-05-23T02:22:47;97986.41;;;18.27;67.38
72587;BME280;60621;49.576;11.024;2023-05-23T02:23:49;97989.88;;;18.28;67.28
72587;BME280;60621;49.576;11.024;2023-05-23T02:24:51;97991.84;;;18.24;67.47
72587;BME280;60621;49.576;11.024;2023-05-23T02:25:52;97988.53;;;18.36;67.41
72587;BME280;60621;49.576;11.024;2023-05-23T02:26:54;97997.16;;;18.43;66.82
72587;BME280;60621;49.576;11.024;2023-05-23T02:27:56;97999.97;;;18.36;66.99
72587;BME280;60621;49.576;11.024;2023-05-23T02:28:58;97993.13;;;18.35;67.02
72587;BME280;60621;49.576;11.024;2023-05-23T02:29:59;97997.97;;;18.40;67.02
72587;BME280;60621;49.576;11.024;2023-05-23T02:31:01;98003.66;;;18.42;67.11
72587;BME280;60621;49.576;11.024;2023-05-23T02:32:03;98003.56;;;18.46;66.53
72587;BME280;60621;49.576;11.024;2023-05-23T02:33:05;98006.34;;;18.42;66.89
72587;BME280;60621;49.576;11.024;2023-05-23T02:34:08;98005.16;;;18.43;67.10
72587;BME280;60621;49.576;11.024;2023-05-23T02:35:12;98009.28;;;18.48;66.99
72587;BME280;60621;49.576;11.024;2023-05-23T02:36:14;98002.34;;;18.51;66.90
72587;BME280;60621;49.576;11.024;2023-05-23T02:37:15;98011.53;;;18.50;66.64
72587;BME280;60621;49.576;11.024;2023-05-23T02:38:17;98010.44;;;18.47;66.61
72587;BME280;60621;49.576;11.024;2023-05-23T02:39:20;98015.69;;;18.51;66.95
72587;BME280;60621;49.576;11.024;2023-05-23T02:40:22;98011.78;;;18.55;66.59
72587;BME280;60621;49.576;11.024;2023-05-23T02:41:24;98014.88;;;18.54;66.37
72587;BME280;60621;49.576;11.024;2023-05-23T02:42:26;98019.03;;;18.55;66.29
72587;BME280;60621;49.576;11.024;2023-05-23T02:43:28;98020.53;;;18.56;66.39
72587;BME280;60621;49.576;11.024;2023-05-23T02:44:29;98016.44;;;18.51;66.49
72587;BME280;60621;49.576;11.024;2023-05-23T02:45:31;98012.19;;;18.54;66.70
72587;BME280;60621;49.576;11.024;2023-05-23T02:46:33;98009.56;;;18.34;67.21
72587;BME280;60621;49.576;11.024;2023-05-23T02:47:34;98016.06;;;18.33;67.26
72587;BME280;60621;49.576;11.024;2023-05-23T02:48:36;98017.50;;;18.37;67.12
72587;BME280;60621;49.576;11.024;2023-05-23T02:49:38;98012.06;;;18.41;67.31
72587;BME280;60621;49.576;11.024;2023-05-23T02:50:39;98021.38;;;18.53;66.42
72587;BME280;60621;49.576;11.024;2023-05-23T02:51:41;98013.31;;;18.56;66.35
72587;BME280;60621;49.576;11.024;2023-05-23T02:52:42;98017.41;;;18.41;66.76
72587;BME280;60621;49.576;11.024;2023-05-23T02:53:44;98016.22;;;18.26;67.26
72587;BME280;60621;49.576;11.024;2023-05-23T02:54:46;98015.94;;;18.20;67.41
72587;BME280;60621;49.576;11.024;2023-05-23T02:55:47;98017.78;;;18.23;67.56
72587;BME280;60621;49.576;11.024;2023-05-23T02:56:49;98018.94;;;18.22;67.85
72587;BME280;60621;49.576;11.024;2023-05-23T02:57:52;98025.59;;;18.14;67.95
72587;BME280;60621;49.576;11.024;2023-05-23T02:58:54;98020.38;;;18.07;68.40
72587;BME280;60621;49.576;11.024;2023-05-23T02:59:55;98029.06;;;18.11;68.07
72587;BME280;60621;49.576;11.024;2023-05-23T03:00:57;98021.13;;;18.07;68.25
72587;BME280;60621;49.576;11.024;2023-05-23T03:01:59;98028.47;;;18.23;67.73
72587;BME280;60621;49.576;11.024;2023-05-23T03:03:00;98022.97;;;18.30;67.70
72587;BME280;60621;49.576;11.024;2023-05-23T03:04:03;98020.31;;;18.30;67.74
72587;BME280;60621;49.576;11.024;2023-05-23T03:05:05;98028.47;;;18.23;67.92
72587;BME280;60621;49.576;11.024;2023-05-23T03:06:07;98030.31;;;18.26;67.56
72587;BME280;60621;49.576;11.024;2023-05-23T03:07:10;98026.25;;;18.18;67.57
72587;BME280;60621;49.576;11.024;2023-05-23T03:08:28;98026.69;;;18.16;68.06
72587;BME280;60621;49.576;11.024;2023-05-23T03:09:30;98024.69;;;18.21;67.97
72587;BME280;60621;49.576;11.024;2023-05-23T03:10:32;98025.94;;;18.16;68.14
72587;BME280;60621;49.576;11.024;2023-05-23T03:11:34;98027.44;;;18.17;67.92
72587;BME280;60621;49.576;11.024;2023-05-23T03:12:36;98023.75;;;18.11;68.22
72587;BME280;60621;49.576;11.024;2023-05-23T03:13:38;98027.91;;;18.12;68.31
72587;BME280;60621;49.576;11.024;2023-05-23T03:14:40;98031.06;;;18.07;68.36
72587;BME280;60621;49.576;11.024;2023-05-23T03:15:41;98035.31;;;18.04;68.53
72587;BME280;60621;49.576;11.024;2023-05-23T03:16:43;98030.50;;;17.96;68.97
72587;BME280;60621;49.576;11.024;2023-05-23T03:17:45;98032.34;;;17.99;68.97
72587;BME280;60621;49.576;11.024;2023-05-23T03:18:47;98037.22;;;18.04;68.96
72587;BME280;60621;49.576;11.024;2023-05-23T03:19:49;98032.03;;;18.16;68.40
72587;BME280;60621;49.576;11.024;2023-05-23T03:20:51;98034.41;;;18.11;68.47
72587;BME280;60621;49.576;11.024;2023-05-23T03:21:53;98036.81;;;18.05;68.85
72587;BME280;60621;49.576;11.024;2023-05-23T03:22:55;98034.00;;;17.92;69.47
72587;BME280;60621;49.576;11.024;2023-05-23T03:23:57;98036.53;;;18.00;68.62
72587;BME280;60621;49.576;11.024;2023-05-23T03:24:58;98037.41;;;17.93;69.12
72587;BME280;60621;49.576;11.024;2023-05-23T03:26:01;98038.63;;;17.88;69.25
72587;BME280;60621;49.576;11.024;2023-05-23T03:27:03;98045.56;;;17.86;69.45
72587;BME280;60621;49.576;11.024;2023-05-23T03:28:05;98044.25;;;17.94;69.04
72587;BME280;60621;49.576;11.024;2023-05-23T03:29:07;98054.31;;;18.06;68.82
72587;BME280;60621;49.576;11.024;2023-05-23T03:30:11;98049.47;;;18.01;68.51
72587;BME280;60621;49.576;11.024;2023-05-23T03:31:13;98050.41;;;17.91;69.11
72587;BME280;60621;49.576;11.024;2023-05-23T03:32:15;98048.63;;;17.84;69.49
72587;BME280;60621;49.576;11.024;2023-05-23T03:33:16;98053.63;;;18.02;69.01
72587;BME280;60621;49.576;11.024;2023-05-23T03:34:18;98062.19;;;17.94;69.29
72587;BME280;60621;49.576;11.024;2023-05-23T03:35:20;98060.09;;;18.05;69.01
72587;BME280;60621;49.576;11.024;2023-05-23T03:36:21;98053.91;;;18.08;68.84
72587;BME280;60621;49.576;11.024;2023-05-23T03:37:26;98061.38;;;18.16;68.28
72587;BME280;60621;49.576;11.024;2023-05-23T03:38:28;98057.00;;;18.26;68.22
72587;BME280;60621;49.576;11.024;2023-05-23T03:39:29;98057.53;;;18.17;68.40
72587;BME280;60621;49.576;11.024;2023-05-23T03:40:31;98059.88;;;17.96;68.97
72587;BME280;60621;49.576;11.024;2023-05-23T03:41:33;98060.72;;;17.89;69.38
72587;BME280;60621;49.576;11.024;2023-05-23T03:42:37;98063.34;;;17.92;69.45
72587;BME280;60621;49.576;11.024;2023-05-23T03:43:39;98061.19;;;17.84;69.66
72587;BME280;60621;49.576;11.024;2023-05-23T03:44:40;98067.59;;;17.90;69.53
72587;BME280;60621;49.576;11.024;2023-05-23T03:45:42;98062.59;;;17.92;69.55
72587;BME280;60621;49.576;11.024;2023-05-23T03:46:45;98060.41;;;17.87;69.36
72587;BME280;60621;49.576;11.024;2023-05-23T03:47:46;98063.06;;;17.87;69.49
72587;BME280;60621;49.576;11.024;2023-05-23T03:48:48;98066.16;;;17.85;69.70
72587;BME280;60621;49.576;11.024;2023-05-23T03:49:50;98063.59;;;17.78;69.88
72587;BME280;60621;49.576;11.024;2023-05-23T03:50:52;98060.59;;;17.76;70.05
72587;BME280;60621;49.576;11.024;2023-05-23T03:51:54;98064.44;;;17.72;69.96
72587;BME280;60621;49.576;11.024;2023-05-23T03:52:55;98069.97;;;17.84;70.33
72587;BME280;60621;49.576;11.024;2023-05-23T03:53:57;98059.97;;;17.88;69.77
72587;BME280;60621;49.576;11.024;2023-05-23T03:54:59;98060.19;;;17.98;69.26
72587;BME280;60621;49.576;11.024;2023-05-23T03:56:00;98060.47;;;18.03;68.95
72587;BME280;60621;49.576;11.024;2023-05-23T03:57:02;98062.25;;;17.90;69.56
72587;BME280;60621;49.576;11.024;2023-05-23T03:58:04;98063.34;;;17.92;69.69
72587;BME280;60621;49.576;11.024;2023-05-23T03:59:06;98057.66;;;17.90;69.34
72587;BME280;60621;49.576;11.024;2023-05-23T04:00:08;98055.94;;;17.80;69.98
72587;BME280;60621;49.576;11.024;2023-05-23T04:01:13;98066.81;;;17.89;69.54
72587;BME280;60621;49.576;11.024;2023-05-23T04:02:14;98062.69;;;17.85;69.92
72587;BME280;60621;49.576;11.024;2023-05-23T04:03:16;98065.59;;;17.94;69.96
72587;BME280;60621;49.576;11.024;2023-05-23T04:04:18;98066.47;;;17.87;69.96
72587;BME280;60621;49.576;11.024;2023-05-23T04:05:21;98065.78;;;17.83;70.29
72587;BME280;60621;49.576;11.024;2023-05-23T04:06:23;98075.50;;;17.94;69.79
72587;BME280;60621;49.576;11.024;2023-05-23T04:07:25;98064.78;;;17.97;69.81
72587;BME280;60621;49.576;11.024;2023-05-23T04:08:27;98072.75;;;18.01;69.98
72587;BME280;60621;49.576;11.024;2023-05-23T04:09:30;98073.59;;;17.94;69.89
72587;BME280;60621;49.576;11.024;2023-05-23T04:10:32;98073.69;;;17.90;70.32
72587;BME280;60621;49.576;11.024;2023-05-23T04:11:34;98077.66;;;18.02;69.92
72587;BME280;60621;49.576;11.024;2023-05-23T04:12:36;98078.78;;;18.05;69.75
72587;BME280;60621;49.576;11.024;2023-05-23T04:13:38;98079.78;;;17.91;70.18
72587;BME280;60621;49.576;11.024;2023-05-23T04:14:40;98076.91;;;18.02;70.07
72587;BME280;60621;49.576;11.024;2023-05-23T04:15:42;98076.69;;;17.92;69.70
72587;BME280;60621;49.576;11.024;2023-05-23T04:16:45;98077.63;;;17.82;70.49
72587;BME280;60621;49.576;11.024;2023-05-23T04:17:48;98081.75;;;17.87;70.21
72587;BME280;60621;49.576;11.024;2023-05-23T04:18:51;98082.53;;;17.84;70.58
72587;BME280;60621;49.576;11.024;2023-05-23T04:19:55;98082.97;;;17.82;70.65
72587;BME280;60621;49.576;11.024;2023-05-23T04:20:58;98084.00;;;17.88;70.88
72587;BME280;60621;49.576;11.024;2023-05-23T04:21:59;98088.16;;;17.89;70.67
72587;BME280;60621;49.576;11.024;2023-05-23T04:23:01;98086.56;;;17.96;70.58
72587;BME280;60621;49.576;11.024;2023-05-23T04:24:03;98084.28;;;17.94;70.41
72587;BME280;60621;49.576;11.024;2023-05-23T04:25:05;98093.81;;;17.95;70.49
72587;BME280;60621;49.576;11.024;2023-05-23T04:26:07;98090.50;;;17.87;70.79
72587;BME280;60621;49.576;11.024;2023-05-23T04:27:10;98098.09;;;17.89;70.80
72587;BME280;60621;49.576;11.024;2023-05-23T04:28:12;98093.50;;;17.89;70.45
72587;BME280;60621;49.576;11.024;2023-05-23T04:29:14;98093.50;;;17.89;70.57
72587;BME280;60621;49.576;11.024;2023-05-23T04:30:16;98097.69;;;17.90;70.59
72587;BME280;60621;49.576;11.024;2023-05-23T04:31:19;98100.75;;;17.89;70.85
72587;BME280;60621;49.576;11.024;2023-05-23T04:32:23;98092.50;;;18.03;70.55
72587;BME280;60621;49.576;11.024;2023-05-23T04:33:24;98102.66;;;18.12;69.91
72587;BME280;60621;49.576;11.024;2023-05-23T04:34:26;98093.94;;;18.08;69.86
72587;BME280;60621;49.576;11.024;2023-05-23T04:35:28;98101.91;;;18.11;70.00
72587;BME280;60621;49.576;11.024;2023-05-23T04:36:30;98094.22;;;18.13;70.04
72587;BME280;60621;49.576;11.024;2023-05-23T04:37:31;98096.13;;;18.13;69.92
72587;BME280;60621;49.576;11.024;2023-05-23T04:38:34;98099.88;;;18.19;69.56
72587;BME280;60621;49.576;11.024;2023-05-23T04:39:35;98097.84;;;18.03;70.05
72587;BME280;60621;49.576;11.024;2023-05-23T04:40:37;98097.38;;;18.08;70.16
72587;BME280;60621;49.576;11.024;2023-05-23T04:41:38;98094.91;;;18.17;69.97
72587;BME280;60621;49.576;11.024;2023-05-23T04:42:40;98096.09;;;18.16;69.78
72587;BME280;60621;49.576;11.024;2023-05-23T04:43:44;98101.09;;;18.14;70.28
72587;BME280;60621;49.576;11.024;2023-05-23T04:44:46;98103.13;;;18.07;70.38
72587;BME280;60621;49.576;11.024;2023-05-23T04:45:50;98100.97;;;17.98;70.59
72587;BME280;60621;49.576;11.024;2023-05-23T04:46:51;98102.22;;;18.13;69.98
72587;BME280;60621;49.576;11.024;2023-05-23T04:47:53;98103.56;;;18.25;69.69
72587;BME280;60621;49.576;11.024;2023-05-23T04:48:55;98099.91;;;18.15;69.64
72587;BME280;60621;49.576;11.024;2023-05-23T04:49:57;98098.47;;;18.11;70.13
72587;BME280;60621;49.576;11.024;2023-05-23T04:51:00;98100.19;;;18.21;69.72
72587;BME280;60621;49.576;11.024;2023-05-23T04:52:06;98102.53;;;18.19;69.81
72587;BME280;60621;49.576;11.024;2023-05-23T04:53:08;98106.50;;;18.31;69.45
72587;BME280;60621;49.576;11.024;2023-05-23T04:54:10;98107.59;;;18.33;69.05
72587;BME280;60621;49.576;11.024;2023-05-23T04:55:11;98114.66;;;18.43;69.57
72587;BME280;60621;49.576;11.024;2023-05-23T04:56:14;98111.16;;;18.27;69.66
72587;BME280;60621;49.576;11.024;2023-05-23T04:57:20;98114.75;;;18.16;70.39
72587;BME280;60621;49.576;11.024;2023-05-23T04:58:23;98112.03;;;18.20;70.30
72587;BME280;60621;49.576;11.024;2023-05-23T04:59:25;98114.03;;;18.36;69.64
72587;BME280;60621;49.576;11.024;2023-05-23T05:00:27;98113.44;;;18.48;69.05
72587;BME280;60621;49.576;11.024;2023-05-23T05:01:30;98111.56;;;18.45;69.12
72587;BME280;60621;49.576;11.024;2023-05-23T05:02:32;98115.69;;;18.30;69.48
72587;BME280;60621;49.576;11.024;2023-05-23T05:03:35;98119.16;;;18.27;69.58
72587;BME280;60621;49.576;11.024;2023-05-23T05:04:37;98116.84;;;18.29;69.58
72587;BME280;60621;49.576;11.024;2023-05-23T05:05:38;98122.66;;;18.24;69.88
72587;BME280;60621;49.576;11.024;2023-05-23T05:06:40;98116.75;;;18.32;69.89
72587;BME280;60621;49.576;11.024;2023-05-23T05:07:42;98123.81;;;18.23;69.90
72587;BME280;60621;49.576;11.024;2023-05-23T05:08:44;98122.94;;;18.29;69.70
72587;BME280;60621;49.576;11.024;2023-05-23T05:09:45;98119.91;;;18.27;69.74
72587;BME280;60621;49.576;11.024;2023-05-23T05:10:47;98121.13;;;18.23;69.79
72587;BME280;60621;49.576;11.024;2023-05-23T05:11:48;98126.63;;;18.15;70.27
72587;BME280;60621;49.576;11.024;2023-05-23T05:12:50;98119.28;;;18.20;70.20
72587;BME280;60621;49.576;11.024;2023-05-23T05:13:51;98120.69;;;18.28;70.04
72587;BME280;60621;49.576;11.024;2023-05-23T05:14:53;98121.22;;;18.39;69.35
72587;BME280;60621;49.576;11.024;2023-05-23T05:15:54;98122.72;;;18.40;69.28
72587;BME280;60621;49.576;11.024;2023-05-23T05:16:56;98116.16;;;18.25;69.95
72587;BME280;60621;49.576;11.024;2023-05-23T05:17:58;98122.56;;;18.27;70.04
72587;BME280;60621;49.576;11.024;2023-05-23T05:19:00;98121.97;;;18.39;69.59
72587;BME280;60621;49.576;11.024;2023-05-23T05:20:03;98122.25;;;18.45;69.41
72587;BME280;60621;49.576;11.024;2023-05-23T05:21:08;98116.84;;;18.49;69.04
72587;BME280;60621;49.576;11.024;2023-05-23T05:22:10;98120.97;;;18.53;69.01
72587;BME280;60621;49.576;11.024;2023-05-23T05:23:12;98116.88;;;18.68;68.76
72587;BME280;60621;49.576;11.024;2023-05-23T05:24:13;98120.00;;;18.63;68.22
72587;BME280;60621;49.576;11.024;2023-05-23T05:25:16;98122.22;;;18.68;68.29
72587;BME280;60621;49.576;11.024;2023-05-23T05:26:17;98121.66;;;18.77;67.95
72587;BME280;60621;49.576;11.024;2023-05-23T05:27:19;98120.97;;;18.73;68.10
72587;BME280;60621;49.576;11.024;2023-05-23T05:28:21;98116.31;;;18.57;68.57
72587;BME280;60621;49.576;11.024;2023-05-23T05:29:24;98122.47;;;18.54;68.73
72587;BME280;60621;49.576;11.024;2023-05-23T05:30:25;98127.75;;;18.58;68.87
72587;BME280;60621;49.576;11.024;2023-05-23T05:31:27;98127.47;;;18.52;68.99
72587;BME280;60621;49.576;11.024;2023-05-23T05:32:30;98127.94;;;18.47;69.23